KAUO

Auburn University Regional Airport

Auburn, Alabama, USA
METAR KAUO 220456Z AUTO 23005KT 9SM OVC003 23/23 A2991 RMK AO2 SLP135 T02330233
Observed Flight Rules
Jun-22 @ 04:56 UTC (50 minutes ago) Instrument Flight Rules
Wind Visibility Clouds
230° at 5 knots 9 miles
  • Overcast at 300' AGL
Temperatures Readings
Current 23°C / 73°F
Dewpoint 23°C / 73°F
Humidity 100%
Altimeter 29.91" Hg
Pressure 1013.5 hPa
Elevation 236
METAR KAUO 220456Z AUTO 23005KT 9SM OVC003 23/23 A2991 RMK AO2 SLP135 T02330233
Observed Flight Rules
Jun-22 @ 04:56 UTC
(50 minutes ago)
LIFR
Wind Visibility
230° at 5 knots 9 miles
Clouds
  • Overcast at 300' AGL
Temperature Dewpoint
23°C / 73°F 23°C / 73°F
Humidity Altimeter Pressure
100% 29.91" Hg 1013.5 hPa